Chaffee, Missouri
Current Conditions -  °F | °C
As of 12:17 AM on Sunday 26 Oct 2014 (Local Time) from KCGI Reporting Station
Haze Haze  
Wind Chill: 55°   Ceiling: Unl
Heat Index: 55°   Visibility: 1.2mi
Dew Point: 55°   Wind: 0mph
Humidity: 100%   Direction: NA
Pressure: 30"   Gusts: NA
Location:  37.18°N, 89.66°W
Report Text: KCGI 260517Z AUTO 00000KT 1 1/4SM BR CLR 13/13 A3000 RMK AO2 TSNO
Loading
Personal Weather Stations






























Interactive Weather Map
Tropical Storm Tracking
New forecast layout! Learn more

10-Day Weather Forecast

Advertisements
Track Severe Weather on mobile